createdAt,value
2022-10-04T00:01:14.623Z,13.22
2022-10-04T00:05:24.040Z,13.14
2022-10-04T00:09:33.746Z,13.03
2022-10-04T00:13:40.018Z,12.93
2022-10-04T00:17:43.084Z,12.84
2022-10-04T00:22:19.547Z,12.78
2022-10-04T00:27:11.210Z,12.73
2022-10-04T00:31:21.052Z,12.68
2022-10-04T00:35:52.301Z,12.64
2022-10-04T00:40:05.558Z,12.61
2022-10-04T00:44:17.137Z,12.57
2022-10-04T00:48:49.862Z,12.52
2022-10-04T00:52:58.232Z,12.45
2022-10-04T00:57:07.421Z,12.36
2022-10-04T01:01:10.854Z,12.22
2022-10-04T01:05:20.577Z,12.09
2022-10-04T01:09:24.375Z,11.96
2022-10-04T01:13:34.105Z,11.83
2022-10-04T01:17:37.481Z,11.67
2022-10-04T01:21:41.801Z,11.49
2022-10-04T01:25:59.166Z,11.30
2022-10-04T01:30:04.898Z,11.14
2022-10-04T01:34:09.086Z,11.02
2022-10-04T01:38:13.523Z,10.93
2022-10-04T01:42:24.666Z,10.86
2022-10-04T01:46:33.162Z,10.69
2022-10-04T01:50:41.065Z,10.78
2022-10-04T01:54:46.805Z,10.76
2022-10-04T01:58:55.412Z,10.72
2022-10-04T02:03:02.521Z,10.69
2022-10-04T02:07:14.073Z,10.62
2022-10-04T02:11:21.023Z,10.57
2022-10-04T02:15:28.325Z,10.51
2022-10-04T02:19:36.939Z,10.43
2022-10-04T02:23:42.323Z,10.35
2022-10-04T02:27:46.021Z,10.26
2022-10-04T02:32:10.609Z,10.21
2022-10-04T02:36:15.137Z,10.16
2022-10-04T02:40:22.639Z,10.14
2022-10-04T02:44:29.873Z,10.15
2022-10-04T02:48:41.637Z,10.20
2022-10-04T02:52:48.152Z,10.27
2022-10-04T02:56:53.726Z,10.36
2022-10-04T03:01:00.176Z,10.46
2022-10-04T03:05:07.993Z,10.57
2022-10-04T03:09:11.711Z,10.67
2022-10-04T03:13:16.214Z,10.76
2022-10-04T03:17:21.032Z,10.82
2022-10-04T03:21:26.641Z,10.90
2022-10-04T03:25:38.563Z,10.96
2022-10-04T03:29:44.418Z,11.00
2022-10-04T03:33:49.417Z,11.01
2022-10-04T03:37:54.518Z,11.06
2022-10-04T03:41:59.824Z,11.09
2022-10-04T03:46:05.510Z,11.09
2022-10-04T03:50:18.186Z,11.10
2022-10-04T03:54:25.732Z,11.11
2022-10-04T03:58:32.293Z,11.13
2022-10-04T04:02:45.811Z,11.13
2022-10-04T04:07:00.081Z,11.16
2022-10-04T04:11:07.064Z,11.19
2022-10-04T04:15:13.652Z,11.12
2022-10-04T04:19:23.198Z,11.18
2022-10-04T04:23:33.537Z,11.12
2022-10-04T04:27:40.834Z,11.13
2022-10-04T04:31:49.139Z,11.12
2022-10-04T04:35:56.714Z,11.07
2022-10-04T04:40:20.240Z,11.05
2022-10-04T04:44:24.833Z,10.99
2022-10-04T04:48:28.169Z,10.93
2022-10-04T04:52:32.655Z,10.87
2022-10-04T04:56:36.963Z,10.82
2022-10-04T05:00:43.120Z,10.77
2022-10-04T05:04:46.336Z,10.67
2022-10-04T05:08:52.437Z,10.55
2022-10-04T05:12:55.607Z,10.49
2022-10-04T05:17:00.849Z,10.38
2022-10-04T05:21:12.991Z,10.33
2022-10-04T05:25:27.327Z,10.28
2022-10-04T05:29:34.857Z,10.27
2022-10-04T05:33:47.331Z,10.27
2022-10-04T05:38:02.646Z,10.28
2022-10-04T05:42:14.239Z,10.27
2022-10-04T05:46:22.999Z,10.31
2022-10-04T05:50:35.076Z,10.36
2022-10-04T05:54:38.067Z,10.39
2022-10-04T05:58:55.863Z,10.53
2022-10-04T06:03:30.477Z,10.68
2022-10-04T06:07:40.416Z,10.86
2022-10-04T06:11:55.863Z,11.12
2022-10-04T06:16:12.969Z,11.37
2022-10-04T06:20:44.959Z,11.67
2022-10-04T06:24:53.602Z,11.99
2022-10-04T06:29:00.268Z,12.29
2022-10-04T06:33:25.179Z,12.62
2022-10-04T06:38:00.075Z,12.97
2022-10-04T06:42:25.706Z,13.32
2022-10-04T06:46:37.232Z,13.60
2022-10-04T06:50:49.154Z,13.92
2022-10-04T06:55:12.228Z,14.20
2022-10-04T06:59:35.582Z,14.41
2022-10-04T07:03:49.179Z,14.54
2022-10-04T07:08:08.303Z,14.57
2022-10-04T07:12:16.618Z,14.59
2022-10-04T07:16:31.454Z,14.61
2022-10-04T07:20:38.072Z,14.65
2022-10-04T07:24:55.446Z,14.73
2022-10-04T07:29:20.941Z,14.88
2022-10-04T07:33:32.959Z,15.12
2022-10-04T07:37:47.409Z,15.43
2022-10-04T07:41:54.766Z,15.83
2022-10-04T07:46:06.667Z,16.24
2022-10-04T07:50:23.708Z,16.66
2022-10-04T07:54:38.740Z,16.98
2022-10-04T07:58:52.494Z,17.18
2022-10-04T08:03:16.871Z,17.27
2022-10-04T08:07:28.341Z,17.30
2022-10-04T08:11:44.513Z,17.33
2022-10-04T08:15:47.852Z,17.39
2022-10-04T08:20:01.581Z,17.48
2022-10-04T08:24:20.930Z,17.64
2022-10-04T08:28:58.140Z,17.85
2022-10-04T08:33:11.197Z,18.13
2022-10-04T08:37:26.803Z,18.53
2022-10-04T08:42:12.085Z,19.15
2022-10-04T08:46:43.504Z,19.69
2022-10-04T08:51:24.802Z,19.95
2022-10-04T08:55:59.078Z,20.03
2022-10-04T09:00:21.873Z,20.01
2022-10-04T09:05:20.782Z,19.97
2022-10-04T09:09:49.702Z,19.98
2022-10-04T09:14:11.889Z,20.02
2022-10-04T09:18:50.527Z,20.08
2022-10-04T09:23:04.088Z,20.14
2022-10-04T09:27:53.753Z,20.19
2022-10-04T09:32:20.702Z,20.23
2022-10-04T09:36:44.763Z,20.30
2022-10-04T09:41:08.980Z,20.43
2022-10-04T09:45:32.930Z,20.62
2022-10-04T09:50:08.159Z,20.82
2022-10-04T09:54:45.947Z,21.06
2022-10-04T09:59:22.179Z,21.27
2022-10-04T10:03:52.530Z,21.48
2022-10-04T10:08:08.870Z,21.70
2022-10-04T10:12:42.195Z,21.95
2022-10-04T10:17:02.706Z,22.22
2022-10-04T10:21:20.278Z,22.59
2022-10-04T10:25:38.417Z,22.88
2022-10-04T10:30:18.178Z,23.14
2022-10-04T10:34:47.550Z,23.35
2022-10-04T10:39:20.336Z,23.55
2022-10-04T10:43:36.511Z,23.75
2022-10-04T10:47:54.081Z,23.95
2022-10-04T10:52:42.458Z,24.18
2022-10-04T10:57:05.704Z,24.37
2022-10-04T11:01:28.080Z,24.49
2022-10-04T11:06:03.446Z,24.61
2022-10-04T11:10:50.006Z,24.81
2022-10-04T11:15:22.230Z,25.00
2022-10-04T11:20:05.995Z,25.12
2022-10-04T11:24:29.971Z,25.26
2022-10-04T11:28:46.925Z,25.33
2022-10-04T11:33:30.749Z,25.40
2022-10-04T11:37:52.651Z,25.47
2022-10-04T11:42:08.334Z,25.53
2022-10-04T11:46:28.327Z,25.56
2022-10-04T11:51:03.697Z,25.56
2022-10-04T11:55:31.360Z,25.57
2022-10-04T11:59:48.181Z,25.53
2022-10-04T12:04:19.691Z,25.52
2022-10-04T12:08:33.465Z,25.48
2022-10-04T12:12:56.881Z,25.47
2022-10-04T12:17:44.252Z,25.42
2022-10-04T12:21:59.241Z,25.38
2022-10-04T12:26:33.620Z,25.39
2022-10-04T12:30:57.005Z,25.43
2022-10-04T12:35:09.600Z,25.46
2022-10-04T12:39:23.312Z,25.54
2022-10-04T12:43:38.617Z,25.51
2022-10-04T12:48:01.914Z,25.49
2022-10-04T12:52:16.697Z,25.49
2022-10-04T12:56:37.859Z,25.45
2022-10-04T13:00:45.794Z,25.45
2022-10-04T13:04:52.255Z,25.44
2022-10-04T13:09:08.765Z,25.34
2022-10-04T13:13:45.753Z,25.21
2022-10-04T13:17:56.928Z,25.50
2022-10-04T13:22:51.221Z,25.23
2022-10-04T13:26:58.156Z,25.42
2022-10-04T13:31:07.865Z,25.59
2022-10-04T13:35:25.018Z,25.51
2022-10-04T13:40:00.344Z,25.73
2022-10-04T13:44:23.448Z,25.70
2022-10-04T13:48:49.810Z,25.56
2022-10-04T13:53:21.701Z,25.54
2022-10-04T13:57:32.616Z,25.68
2022-10-04T14:02:13.255Z,25.59
2022-10-04T14:06:45.515Z,25.60
2022-10-04T14:11:09.607Z,25.66
2022-10-04T14:15:34.830Z,25.65
2022-10-04T14:20:11.972Z,25.62
2022-10-04T14:24:58.765Z,25.61
2022-10-04T14:29:41.899Z,25.64
2022-10-04T14:34:27.340Z,25.51
2022-10-04T14:39:09.714Z,25.48
2022-10-04T14:43:34.760Z,25.12
2022-10-04T14:48:09.373Z,25.16
2022-10-04T14:52:33.298Z,25.08
2022-10-04T14:56:59.608Z,25.00
2022-10-04T15:01:24.124Z,24.90
2022-10-04T15:05:37.523Z,24.57
2022-10-04T15:09:59.741Z,24.83
2022-10-04T15:14:07.975Z,24.50
2022-10-04T15:18:37.957Z,24.60
2022-10-04T15:22:45.220Z,24.26
2022-10-04T15:27:26.906Z,24.37
2022-10-04T15:31:35.839Z,24.28
2022-10-04T15:36:11.385Z,24.17
2022-10-04T15:40:29.691Z,24.01
2022-10-04T15:45:00.246Z,23.85
2022-10-04T15:49:22.287Z,23.65
2022-10-04T15:53:57.090Z,23.51
2022-10-04T15:58:40.736Z,23.26
2022-10-04T16:03:04.106Z,22.98
2022-10-04T16:07:43.154Z,22.66
2022-10-04T16:11:58.405Z,22.29
2022-10-04T16:16:32.995Z,21.91
2022-10-04T16:21:06.763Z,21.47
2022-10-04T16:25:37.697Z,21.01
2022-10-04T16:30:21.820Z,20.53
2022-10-04T16:34:42.248Z,19.95
2022-10-04T16:39:05.553Z,19.48
2022-10-04T16:43:15.760Z,19.06
2022-10-04T16:47:25.180Z,18.63
2022-10-04T16:52:07.481Z,18.20
2022-10-04T16:56:16.553Z,17.86
2022-10-04T17:00:44.251Z,17.50
2022-10-04T17:05:25.673Z,17.20
2022-10-04T17:09:32.225Z,16.92
2022-10-04T17:13:44.952Z,16.71
2022-10-04T17:17:52.870Z,16.52
2022-10-04T17:22:06.029Z,16.35
2022-10-04T17:26:21.565Z,16.13
2022-10-04T17:30:27.785Z,15.97
2022-10-04T17:34:42.562Z,15.81
2022-10-04T17:38:59.886Z,15.67
2022-10-04T17:43:12.829Z,15.56
2022-10-04T17:47:23.632Z,15.50
2022-10-04T17:52:00.421Z,15.34
2022-10-04T17:56:08.787Z,15.18
2022-10-04T18:00:15.291Z,15.06
2022-10-04T18:04:21.735Z,14.96
2022-10-04T18:08:41.447Z,14.88
2022-10-04T18:12:51.988Z,14.84
2022-10-04T18:16:59.770Z,14.79
2022-10-04T18:21:08.283Z,14.73
2022-10-04T18:25:15.719Z,14.73
2022-10-04T18:29:38.226Z,14.71
2022-10-04T18:33:50.759Z,14.68
2022-10-04T18:37:55.455Z,14.67
2022-10-04T18:42:11.494Z,14.66
2022-10-04T18:46:21.284Z,14.58
2022-10-04T18:50:35.687Z,14.55
2022-10-04T18:54:51.037Z,14.51
2022-10-04T18:59:33.402Z,14.39
2022-10-04T19:03:46.195Z,14.33
2022-10-04T19:07:59.488Z,14.25
2022-10-04T19:12:12.774Z,14.16
2022-10-04T19:16:36.462Z,14.09
2022-10-04T19:20:46.649Z,14.01
2022-10-04T19:25:12.674Z,13.92
2022-10-04T19:29:32.831Z,13.83
2022-10-04T19:33:48.027Z,13.73
2022-10-04T19:38:05.922Z,13.67
2022-10-04T19:42:14.482Z,13.60
2022-10-04T19:46:29.962Z,13.54
2022-10-04T19:50:40.458Z,13.47
2022-10-04T19:54:47.207Z,13.38
2022-10-04T19:58:59.010Z,13.30
2022-10-04T20:03:02.150Z,13.21
2022-10-04T20:07:12.126Z,13.09
2022-10-04T20:11:21.349Z,12.97
2022-10-04T20:15:47.141Z,12.83
2022-10-04T20:19:50.642Z,12.71
2022-10-04T20:24:02.113Z,12.61
2022-10-04T20:28:06.604Z,12.52
2022-10-04T20:32:11.625Z,12.45
2022-10-04T20:36:52.904Z,12.36
2022-10-04T20:40:55.970Z,12.27
2022-10-04T20:45:04.377Z,12.20
2022-10-04T20:49:17.751Z,12.12
2022-10-04T20:53:23.606Z,12.01
2022-10-04T20:57:27.096Z,11.89
2022-10-04T21:01:44.651Z,11.78
2022-10-04T21:06:01.164Z,11.68
2022-10-04T21:10:17.066Z,11.58
2022-10-04T21:14:25.821Z,11.50
2022-10-04T21:18:30.314Z,11.46
2022-10-04T21:22:41.255Z,11.41
2022-10-04T21:26:56.594Z,11.37
2022-10-04T21:31:01.993Z,11.33
2022-10-04T21:35:08.174Z,11.28
2022-10-04T21:39:11.729Z,11.22
2022-10-04T21:43:15.058Z,11.17
2022-10-04T21:47:18.313Z,11.12
2022-10-04T21:51:23.214Z,11.07
2022-10-04T21:55:27.204Z,11.01
2022-10-04T21:59:30.431Z,10.94
2022-10-04T22:03:33.953Z,10.90
2022-10-04T22:07:38.850Z,10.87
2022-10-04T22:11:41.976Z,10.84
2022-10-04T22:15:45.618Z,10.81
2022-10-04T22:19:50.028Z,10.78
2022-10-04T22:23:55.025Z,10.78
2022-10-04T22:27:58.640Z,10.77
2022-10-04T22:32:01.748Z,10.78
2022-10-04T22:36:15.392Z,10.78
2022-10-04T22:40:23.452Z,10.78
2022-10-04T22:44:30.557Z,10.77
2022-10-04T22:48:34.099Z,10.76
2022-10-04T22:52:37.657Z,10.75
2022-10-04T22:56:42.801Z,10.73
2022-10-04T23:00:46.937Z,10.70
2022-10-04T23:04:53.939Z,10.67
2022-10-04T23:08:57.723Z,10.62
2022-10-04T23:13:02.721Z,10.61
2022-10-04T23:17:18.899Z,10.61
2022-10-04T23:21:24.805Z,10.62
2022-10-04T23:25:30.383Z,10.62
2022-10-04T23:29:36.675Z,10.62
2022-10-04T23:33:40.407Z,10.60
2022-10-04T23:37:43.959Z,10.59
2022-10-04T23:41:47.725Z,10.57
2022-10-04T23:45:53.538Z,10.53
2022-10-04T23:49:56.756Z,10.46
2022-10-04T23:54:00.365Z,10.38
2022-10-04T23:58:09.134Z,10.30
